createdAt,value
2023-04-23T00:00:19.060Z,100.00
2023-04-23T00:02:49.886Z,100.00
2023-04-23T00:05:17.989Z,100.00
2023-04-23T00:07:45.941Z,100.00
2023-04-23T00:10:15.378Z,100.00
2023-04-23T00:12:43.872Z,100.00
2023-04-23T00:15:13.507Z,100.00
2023-04-23T00:17:41.120Z,100.00
2023-04-23T00:20:10.488Z,100.00
2023-04-23T00:22:38.055Z,100.00
2023-04-23T00:25:06.217Z,100.00
2023-04-23T00:27:37.096Z,100.00
2023-04-23T00:30:05.370Z,100.00
2023-04-23T00:32:33.016Z,100.00
2023-04-23T00:35:01.010Z,100.00
2023-04-23T00:37:28.700Z,100.00
2023-04-23T00:39:56.322Z,100.00
2023-04-23T00:42:23.909Z,100.00
2023-04-23T00:44:53.641Z,100.00
2023-04-23T00:47:21.579Z,100.00
2023-04-23T00:49:50.630Z,100.00
2023-04-23T00:52:18.268Z,100.00
2023-04-23T00:54:45.905Z,100.00
2023-04-23T00:57:14.316Z,100.00
2023-04-23T00:59:42.310Z,100.00
2023-04-23T01:02:11.497Z,100.00
2023-04-23T01:04:39.626Z,100.00
2023-04-23T01:07:07.691Z,100.00
2023-04-23T01:09:35.427Z,100.00
2023-04-23T01:12:04.870Z,100.00
2023-04-23T01:14:32.787Z,100.00
2023-04-23T01:17:01.102Z,100.00
2023-04-23T01:19:30.250Z,100.00
2023-04-23T01:22:01.096Z,100.00
2023-04-23T01:24:30.675Z,100.00
2023-04-23T01:26:58.660Z,100.00
2023-04-23T01:29:27.105Z,100.00
2023-04-23T01:31:55.636Z,100.00
2023-04-23T01:34:23.529Z,100.00
2023-04-23T01:36:53.123Z,100.00
2023-04-23T01:39:20.867Z,100.00
2023-04-23T01:41:50.038Z,100.00
2023-04-23T01:44:17.870Z,100.00
2023-04-23T01:46:45.697Z,100.00
2023-04-23T01:49:13.934Z,100.00
2023-04-23T01:51:41.621Z,100.00
2023-04-23T01:54:09.130Z,100.00
2023-04-23T01:56:36.760Z,100.00
2023-04-23T01:59:07.220Z,100.00
2023-04-23T02:01:45.473Z,100.00
2023-04-23T02:04:14.462Z,100.00
2023-04-23T02:06:43.415Z,100.00
2023-04-23T02:09:11.562Z,100.00
2023-04-23T02:11:39.401Z,100.00
2023-04-23T02:14:23.952Z,100.00
2023-04-23T02:16:51.559Z,100.00
2023-04-23T02:19:19.120Z,100.00
2023-04-23T02:21:47.616Z,100.00
2023-04-23T02:24:15.207Z,100.00
2023-04-23T02:26:42.809Z,100.00
2023-04-23T02:29:11.808Z,100.00
2023-04-23T02:31:39.458Z,100.00
2023-04-23T02:34:07.128Z,100.00
2023-04-23T02:36:34.718Z,100.00
2023-04-23T02:39:02.311Z,100.00
2023-04-23T02:41:30.005Z,100.00
2023-04-23T02:43:57.690Z,100.00
2023-04-23T02:46:26.961Z,100.00
2023-04-23T02:48:54.562Z,100.00
2023-04-23T02:51:22.197Z,100.00
2023-04-23T02:53:49.960Z,100.00
2023-04-23T02:56:17.492Z,100.00
2023-04-23T02:58:45.096Z,100.00
2023-04-23T03:01:12.771Z,100.00
2023-04-23T03:03:42.044Z,100.00
2023-04-23T03:06:10.008Z,100.00
2023-04-23T03:08:37.609Z,100.00
2023-04-23T03:11:05.233Z,100.00
2023-04-23T03:13:32.841Z,100.00
2023-04-23T03:16:00.681Z,100.00
2023-04-23T03:18:28.388Z,100.00
2023-04-23T03:20:57.361Z,100.00
2023-04-23T03:23:25.486Z,100.00
2023-04-23T03:25:53.121Z,100.00
2023-04-23T03:28:20.709Z,100.00
2023-04-23T03:30:48.378Z,100.00
2023-04-23T03:33:17.656Z,100.00
2023-04-23T03:35:45.525Z,100.00
2023-04-23T03:38:14.461Z,100.00
2023-04-23T03:40:42.057Z,100.00
2023-04-23T03:43:09.609Z,100.00
2023-04-23T03:45:37.434Z,100.00
2023-04-23T03:48:05.368Z,100.00
2023-04-23T03:50:34.367Z,100.00
2023-04-23T03:53:02.160Z,100.00
2023-04-23T03:55:31.071Z,100.00
2023-04-23T03:58:01.540Z,100.00
2023-04-23T04:00:29.291Z,100.00
2023-04-23T04:02:57.064Z,100.00
2023-04-23T04:05:24.873Z,100.00
2023-04-23T04:07:52.512Z,100.00
2023-04-23T04:10:20.285Z,100.00
2023-04-23T04:12:49.323Z,100.00
2023-04-23T04:15:17.527Z,100.00
2023-04-23T04:17:45.829Z,100.00
2023-04-23T04:20:13.671Z,100.00
2023-04-23T04:22:41.318Z,100.00
2023-04-23T04:25:09.658Z,100.00
2023-04-23T04:27:37.581Z,100.00
2023-04-23T04:30:08.079Z,100.00
2023-04-23T04:32:35.668Z,100.00
2023-04-23T04:35:03.944Z,100.00
2023-04-23T04:37:32.000Z,100.00
2023-04-23T04:40:01.335Z,100.00
2023-04-23T04:42:28.948Z,100.00
2023-04-23T04:44:58.261Z,100.00
2023-04-23T04:47:27.803Z,100.00
2023-04-23T04:49:57.492Z,100.00
2023-04-23T04:52:25.448Z,100.00
2023-04-23T04:54:53.184Z,100.00
2023-04-23T04:57:22.799Z,100.00
2023-04-23T04:59:51.334Z,100.00
2023-04-23T05:02:20.105Z,100.00
2023-04-23T05:04:49.224Z,100.00
2023-04-23T05:07:17.023Z,100.00
2023-04-23T05:09:45.291Z,100.00
2023-04-23T05:12:12.913Z,100.00
2023-04-23T05:14:40.780Z,100.00
2023-04-23T05:17:10.642Z,100.00
2023-04-23T05:19:38.174Z,100.00
2023-04-23T05:22:07.198Z,100.00
2023-04-23T05:24:34.800Z,100.00
2023-04-23T05:27:02.522Z,100.00
2023-04-23T05:29:30.228Z,100.00
2023-04-23T05:31:57.896Z,100.00
2023-04-23T05:34:25.509Z,100.00
2023-04-23T05:36:53.100Z,100.00
2023-04-23T05:39:25.142Z,100.00
2023-04-23T05:41:52.941Z,97.20
2023-04-23T05:44:20.607Z,92.36
2023-04-23T05:46:48.153Z,87.66
2023-04-23T05:49:16.029Z,85.42
2023-04-23T05:51:44.730Z,88.07
2023-04-23T05:54:13.660Z,87.55
2023-04-23T05:56:43.050Z,79.67
2023-04-23T05:59:10.891Z,76.83
2023-04-23T06:01:38.601Z,75.81
2023-04-23T06:04:06.427Z,71.53
2023-04-23T06:06:35.844Z,72.29
2023-04-23T06:09:05.349Z,77.69
2023-04-23T06:11:33.107Z,79.00
2023-04-23T06:14:02.177Z,81.43
2023-04-23T06:16:29.826Z,79.24
2023-04-23T06:18:57.514Z,74.38
2023-04-23T06:21:29.816Z,67.08
2023-04-23T06:23:57.391Z,62.95
2023-04-23T06:26:25.363Z,63.19
2023-04-23T06:28:53.129Z,61.11
2023-04-23T06:31:22.932Z,59.20
2023-04-23T06:33:50.658Z,62.81
2023-04-23T06:36:18.254Z,64.20
2023-04-23T06:38:46.028Z,60.22
2023-04-23T06:41:13.939Z,53.97
2023-04-23T06:43:41.569Z,50.55
2023-04-23T06:46:10.081Z,49.82
2023-04-23T06:48:38.995Z,53.96
2023-04-23T06:51:07.004Z,56.90
2023-04-23T06:53:35.054Z,61.27
2023-04-23T06:56:02.742Z,62.09
2023-04-23T06:58:32.369Z,65.21
2023-04-23T07:01:01.154Z,64.15
2023-04-23T07:03:29.132Z,65.64
2023-04-23T07:06:07.590Z,59.93
2023-04-23T07:08:36.306Z,56.42
2023-04-23T07:11:04.171Z,54.28
2023-04-23T07:13:31.887Z,52.78
2023-04-23T07:15:59.722Z,50.28
2023-04-23T07:18:27.718Z,50.21
2023-04-23T07:20:55.843Z,49.78
2023-04-23T07:23:25.084Z,48.59
2023-04-23T07:25:53.227Z,47.00
2023-04-23T07:28:20.815Z,45.94
2023-04-23T07:30:49.088Z,47.99
2023-04-23T07:33:17.190Z,47.65
2023-04-23T07:35:44.882Z,46.50
2023-04-23T07:38:12.459Z,43.77
2023-04-23T07:40:42.583Z,46.46
2023-04-23T07:43:10.680Z,49.32
2023-04-23T07:45:39.375Z,48.18
2023-04-23T07:48:07.228Z,49.04
2023-04-23T07:50:34.991Z,48.46
2023-04-23T07:53:03.052Z,50.10
2023-04-23T07:55:31.719Z,50.70
2023-04-23T07:58:00.696Z,54.95
2023-04-23T08:00:30.791Z,55.76
2023-04-23T08:03:00.133Z,53.82
2023-04-23T08:05:28.511Z,53.32
2023-04-23T08:07:56.110Z,54.08
2023-04-23T08:10:23.745Z,53.87
2023-04-23T08:12:51.328Z,53.93
2023-04-23T08:15:20.309Z,52.16
2023-04-23T08:17:48.065Z,50.50
2023-04-23T08:20:15.697Z,50.86
2023-04-23T08:22:43.286Z,48.84
2023-04-23T08:25:11.108Z,50.37
2023-04-23T08:27:38.667Z,52.57
2023-04-23T08:30:08.351Z,55.76
2023-04-23T08:32:37.909Z,55.83
2023-04-23T08:35:06.316Z,54.55
2023-04-23T08:37:35.106Z,52.89
2023-04-23T08:40:02.910Z,51.32
2023-04-23T08:42:38.235Z,48.78
2023-04-23T08:45:07.361Z,47.14
2023-04-23T08:47:35.633Z,49.09
2023-04-23T08:50:06.537Z,48.38
2023-04-23T08:52:36.047Z,46.29
2023-04-23T08:55:10.551Z,47.03
2023-04-23T08:57:40.628Z,49.07
2023-04-23T09:00:11.085Z,51.57
2023-04-23T09:02:41.083Z,51.97
2023-04-23T09:05:12.277Z,52.80
2023-04-23T09:07:40.768Z,52.10
2023-04-23T09:10:11.330Z,52.10
2023-04-23T09:12:41.349Z,52.99
2023-04-23T09:15:12.665Z,53.25
2023-04-23T09:17:42.093Z,55.08
2023-04-23T09:20:14.866Z,56.65
2023-04-23T09:22:46.029Z,56.55
2023-04-23T09:25:16.192Z,56.25
2023-04-23T09:27:43.916Z,55.14
2023-04-23T09:30:13.544Z,54.24
2023-04-23T09:32:47.011Z,55.02
2023-04-23T09:35:19.762Z,55.17
2023-04-23T09:37:49.674Z,54.92
2023-04-23T09:40:18.689Z,56.13
2023-04-23T09:42:49.744Z,54.64
2023-04-23T09:45:17.626Z,53.19
2023-04-23T09:47:50.669Z,52.94
2023-04-23T09:50:20.203Z,53.77
2023-04-23T09:52:55.936Z,52.42
2023-04-23T09:55:29.182Z,50.96
2023-04-23T09:57:56.886Z,52.27
2023-04-23T10:00:29.177Z,52.62
2023-04-23T10:02:56.896Z,53.07
2023-04-23T10:05:29.378Z,53.86
2023-04-23T10:08:07.362Z,55.66
2023-04-23T10:10:43.437Z,54.73
2023-04-23T10:13:23.224Z,53.86
2023-04-23T10:15:51.307Z,53.01
2023-04-23T10:18:21.369Z,53.94
2023-04-23T10:20:51.360Z,52.06
2023-04-23T10:23:23.015Z,50.94
2023-04-23T10:25:54.082Z,51.10
2023-04-23T10:28:29.038Z,50.38
2023-04-23T10:30:58.189Z,48.99
2023-04-23T10:33:29.877Z,50.11
2023-04-23T10:36:03.029Z,48.04
2023-04-23T10:38:31.167Z,48.02
2023-04-23T10:41:00.406Z,47.54
2023-04-23T10:43:28.868Z,49.11
2023-04-23T10:45:56.654Z,48.05
2023-04-23T10:48:24.507Z,47.56
2023-04-23T10:51:14.572Z,46.33
2023-04-23T10:53:48.100Z,47.47
2023-04-23T10:56:16.572Z,48.06
2023-04-23T10:58:52.045Z,48.63
2023-04-23T11:01:25.508Z,50.62
2023-04-23T11:03:53.702Z,49.58
2023-04-23T11:06:56.397Z,49.59
2023-04-23T11:09:31.993Z,50.71
2023-04-23T11:12:01.405Z,51.63
2023-04-23T11:14:49.207Z,49.24
2023-04-23T11:17:18.587Z,48.18
2023-04-23T11:20:11.316Z,45.93
2023-04-23T11:22:42.841Z,45.41
2023-04-23T11:25:12.204Z,44.89
2023-04-23T11:27:41.916Z,45.02
2023-04-23T11:30:14.201Z,44.68
2023-04-23T11:32:42.841Z,45.36
2023-04-23T11:35:13.623Z,45.25
2023-04-23T11:37:48.309Z,46.92
2023-04-23T11:40:19.516Z,48.35
2023-04-23T11:42:49.696Z,46.95
2023-04-23T11:45:18.842Z,48.74
2023-04-23T11:47:47.667Z,47.76
2023-04-23T11:50:19.545Z,46.75
2023-04-23T11:52:51.596Z,46.15
2023-04-23T11:55:20.180Z,45.41
2023-04-23T11:58:02.014Z,45.07
2023-04-23T12:00:29.745Z,44.11
2023-04-23T12:02:59.332Z,43.49
2023-04-23T12:05:30.454Z,42.88
2023-04-23T12:08:10.328Z,43.55
2023-04-23T12:10:45.252Z,42.98
2023-04-23T12:13:21.019Z,43.12
2023-04-23T12:15:50.730Z,42.60
2023-04-23T12:18:18.831Z,41.58
2023-04-23T12:20:47.145Z,41.07
2023-04-23T12:23:19.423Z,42.01
2023-04-23T12:28:14.955Z,40.43
2023-04-23T12:30:45.546Z,42.48
2023-04-23T12:33:16.161Z,43.38
2023-04-23T12:35:44.977Z,43.98
2023-04-23T12:38:24.854Z,42.17
2023-04-23T12:40:53.007Z,42.42
2023-04-23T12:43:20.969Z,42.17
2023-04-23T12:45:49.233Z,42.64
2023-04-23T12:48:22.737Z,43.31
2023-04-23T12:50:51.678Z,42.66
2023-04-23T12:53:20.733Z,42.48
2023-04-23T12:58:33.470Z,41.11
2023-04-23T13:01:01.308Z,41.92
2023-04-23T13:03:29.281Z,42.27
2023-04-23T13:05:57.138Z,40.67
2023-04-23T13:08:24.963Z,41.43
2023-04-23T13:10:54.045Z,40.21
2023-04-23T13:13:21.974Z,41.62
2023-04-23T13:15:49.614Z,41.18
2023-04-23T13:18:17.236Z,42.80
2023-04-23T13:20:45.062Z,42.72
2023-04-23T13:23:13.289Z,42.84
2023-04-23T13:25:41.381Z,42.79
2023-04-23T13:28:11.538Z,42.10
2023-04-23T13:30:42.066Z,43.36
2023-04-23T13:33:09.877Z,42.03
2023-04-23T13:35:38.260Z,40.04
2023-04-23T13:38:06.064Z,40.96
2023-04-23T13:40:33.702Z,42.09
2023-04-23T13:43:01.589Z,42.13
2023-04-23T13:45:30.581Z,40.96
2023-04-23T13:47:58.372Z,40.47
2023-04-23T13:50:26.240Z,39.62
2023-04-23T13:52:53.976Z,37.91
2023-04-23T13:55:22.983Z,38.06
2023-04-23T13:57:52.331Z,37.40
2023-04-23T14:00:20.032Z,38.60
2023-04-23T14:02:49.303Z,39.48
2023-04-23T14:05:17.328Z,40.24
2023-04-23T14:07:45.073Z,40.52
2023-04-23T14:10:12.851Z,40.58
2023-04-23T14:12:40.951Z,39.65
2023-04-23T14:15:10.795Z,40.00
2023-04-23T14:17:39.265Z,39.51
2023-04-23T14:20:09.654Z,39.19
2023-04-23T14:22:37.391Z,39.63
2023-04-23T14:25:09.735Z,38.58
2023-04-23T14:27:41.871Z,38.51
2023-04-23T14:30:20.682Z,38.76
2023-04-23T14:32:49.897Z,37.90
2023-04-23T14:35:26.781Z,38.53
2023-04-23T14:38:04.227Z,38.85
2023-04-23T14:40:31.860Z,38.62
2023-04-23T14:43:08.129Z,38.58
2023-04-23T14:45:42.584Z,38.46
2023-04-23T14:48:10.559Z,37.90
2023-04-23T14:50:39.723Z,38.12
2023-04-23T14:53:09.947Z,37.98
2023-04-23T14:55:38.935Z,37.77
2023-04-23T14:58:06.614Z,37.50
2023-04-23T15:00:34.893Z,38.58
2023-04-23T15:03:08.362Z,38.68
2023-04-23T15:05:36.851Z,38.75
2023-04-23T15:08:05.983Z,38.25
2023-04-23T15:10:33.710Z,38.68
2023-04-23T15:13:07.860Z,38.93
2023-04-23T15:15:45.306Z,39.03
2023-04-23T15:18:14.734Z,37.93
2023-04-23T15:20:42.780Z,37.72
2023-04-23T15:23:12.915Z,38.68
2023-04-23T15:25:41.037Z,39.21
2023-04-23T15:28:08.758Z,39.57
2023-04-23T15:30:36.847Z,38.89
2023-04-23T15:33:04.958Z,39.16
2023-04-23T15:35:32.651Z,38.14
2023-04-23T15:38:01.338Z,39.02
2023-04-23T15:40:30.747Z,38.90
2023-04-23T15:42:59.719Z,39.27
2023-04-23T15:45:29.908Z,39.40
2023-04-23T15:47:57.812Z,39.71
2023-04-23T15:50:27.011Z,40.10
2023-04-23T15:52:54.979Z,40.23
2023-04-23T15:55:22.971Z,39.74
2023-04-23T15:57:52.053Z,40.29
2023-04-23T16:00:19.935Z,40.33
2023-04-23T16:02:47.668Z,40.21
2023-04-23T16:05:16.768Z,39.03
2023-04-23T16:07:44.741Z,40.04
2023-04-23T16:10:12.635Z,39.85
2023-04-23T16:12:45.350Z,41.57
2023-04-23T16:15:14.609Z,42.02
2023-04-23T16:18:05.249Z,41.00
2023-04-23T16:20:38.481Z,43.38
2023-04-23T16:23:08.373Z,42.69
2023-04-23T16:25:36.712Z,42.43
2023-04-23T16:28:05.099Z,42.71
2023-04-23T16:30:34.703Z,43.82
2023-04-23T16:33:02.614Z,43.75
2023-04-23T16:35:30.403Z,44.37
2023-04-23T16:37:58.357Z,44.91
2023-04-23T16:40:26.453Z,48.85
2023-04-23T16:42:54.413Z,56.16
2023-04-23T16:45:23.753Z,62.60
2023-04-23T16:47:53.756Z,67.18
2023-04-23T16:50:23.449Z,67.83
2023-04-23T16:52:51.295Z,69.72
2023-04-23T16:55:19.721Z,71.72
2023-04-23T16:57:51.727Z,73.88
2023-04-23T17:00:21.904Z,74.52
2023-04-23T17:02:56.408Z,75.84
2023-04-23T17:05:25.087Z,77.16
2023-04-23T17:07:54.985Z,77.85
2023-04-23T17:10:32.817Z,80.11
2023-04-23T17:13:00.430Z,83.36
2023-04-23T17:15:28.259Z,83.96
2023-04-23T17:17:57.430Z,85.07
2023-04-23T17:20:27.055Z,85.17
2023-04-23T17:22:55.120Z,84.93
2023-04-23T17:25:22.948Z,84.30
2023-04-23T17:28:00.076Z,85.52
2023-04-23T17:30:31.845Z,86.01
2023-04-23T17:33:01.658Z,84.75
2023-04-23T17:35:29.393Z,85.21
2023-04-23T17:37:57.122Z,85.22
2023-04-23T17:40:24.751Z,85.91
2023-04-23T17:42:52.508Z,87.51
2023-04-23T17:45:21.465Z,86.95
2023-04-23T17:47:49.126Z,87.32
2023-04-23T17:50:21.453Z,89.15
2023-04-23T17:52:49.296Z,87.33
2023-04-23T17:55:16.908Z,87.41
2023-04-23T17:57:44.550Z,88.52
2023-04-23T18:00:14.352Z,88.77
2023-04-23T18:02:44.408Z,88.50
2023-04-23T18:05:14.547Z,89.08
2023-04-23T18:07:44.851Z,89.38
2023-04-23T18:10:13.271Z,90.80
2023-04-23T18:12:41.482Z,90.30
2023-04-23T18:15:12.490Z,92.55
2023-04-23T18:17:40.633Z,93.88
2023-04-23T18:20:10.172Z,95.36
2023-04-23T18:22:38.385Z,96.06
2023-04-23T18:25:10.183Z,97.77
2023-04-23T18:27:45.755Z,97.58
2023-04-23T18:30:15.262Z,97.60
2023-04-23T18:32:48.013Z,97.33
2023-04-23T18:35:16.065Z,98.93
2023-04-23T18:37:49.782Z,97.41
2023-04-23T18:40:23.544Z,98.85
2023-04-23T18:42:52.952Z,97.88
2023-04-23T18:45:20.609Z,96.56
2023-04-23T18:47:52.349Z,98.85
2023-04-23T18:50:32.529Z,99.85
2023-04-23T18:53:00.220Z,100.00
2023-04-23T18:55:30.125Z,99.94
2023-04-23T18:57:58.647Z,97.96
2023-04-23T19:00:27.383Z,97.39
2023-04-23T19:02:56.654Z,96.50
2023-04-23T19:05:25.924Z,95.68
2023-04-23T19:07:54.575Z,94.41
2023-04-23T19:10:23.912Z,94.48
2023-04-23T19:12:52.914Z,93.05
2023-04-23T19:15:20.636Z,93.49
2023-04-23T19:17:49.044Z,94.03
2023-04-23T19:20:18.499Z,94.22
2023-04-23T19:22:47.539Z,94.02
2023-04-23T19:25:15.199Z,92.83
2023-04-23T19:27:43.004Z,93.78
2023-04-23T19:30:12.850Z,93.52
2023-04-23T19:32:40.640Z,93.72
2023-04-23T19:35:09.038Z,94.46
2023-04-23T19:37:36.940Z,96.93
2023-04-23T19:40:07.051Z,96.87
2023-04-23T19:42:35.930Z,97.47
2023-04-23T19:45:03.896Z,98.89
2023-04-23T19:47:35.681Z,99.48
2023-04-23T19:50:03.524Z,100.00
2023-04-23T19:52:31.161Z,99.50
2023-04-23T19:54:59.155Z,99.03
2023-04-23T19:57:26.766Z,100.00
2023-04-23T19:59:54.487Z,100.00
2023-04-23T20:02:22.155Z,100.00
2023-04-23T20:04:51.537Z,99.84
2023-04-23T20:07:19.374Z,98.75
2023-04-23T20:09:46.950Z,99.39
2023-04-23T20:12:15.002Z,100.00
2023-04-23T20:14:42.826Z,100.00
2023-04-23T20:17:10.760Z,100.00
2023-04-23T20:19:40.983Z,100.00
2023-04-23T20:22:12.473Z,100.00
2023-04-23T20:24:46.207Z,100.00
2023-04-23T20:27:14.089Z,100.00
2023-04-23T20:29:42.125Z,100.00
2023-04-23T20:32:10.057Z,100.00
2023-04-23T20:34:37.740Z,100.00
2023-04-23T20:37:06.691Z,100.00
2023-04-23T20:39:37.286Z,100.00
2023-04-23T20:42:05.475Z,100.00
2023-04-23T20:44:34.328Z,100.00
2023-04-23T20:47:04.865Z,100.00
2023-04-23T20:49:33.017Z,100.00
2023-04-23T20:52:00.884Z,100.00
2023-04-23T20:54:29.051Z,100.00
2023-04-23T20:56:58.584Z,100.00
2023-04-23T20:59:26.374Z,100.00
2023-04-23T21:01:54.103Z,100.00
2023-04-23T21:04:21.992Z,100.00
2023-04-23T21:06:50.999Z,99.56
2023-04-23T21:09:18.978Z,99.03
2023-04-23T21:11:46.610Z,98.87
2023-04-23T21:14:15.623Z,99.31
2023-04-23T21:16:43.468Z,98.08
2023-04-23T21:19:11.190Z,96.96
2023-04-23T21:21:38.825Z,95.90
2023-04-23T21:24:06.612Z,95.81
2023-04-23T21:26:34.254Z,94.66
2023-04-23T21:29:02.084Z,95.07
2023-04-23T21:31:42.399Z,94.79
2023-04-23T21:34:10.234Z,95.10
2023-04-23T21:36:38.072Z,94.85
2023-04-23T21:39:06.604Z,93.90
2023-04-23T21:41:34.357Z,93.04
2023-04-23T21:44:02.188Z,92.02
2023-04-23T21:46:30.395Z,91.62
2023-04-23T21:48:59.768Z,91.88
2023-04-23T21:51:28.028Z,91.89
2023-04-23T21:53:55.826Z,91.46
2023-04-23T21:56:23.713Z,91.48
2023-04-23T21:58:51.418Z,91.69
2023-04-23T22:01:19.235Z,90.25
2023-04-23T22:03:47.950Z,89.56
2023-04-23T22:06:17.504Z,89.16
2023-04-23T22:08:46.228Z,89.26
2023-04-23T22:11:14.547Z,87.76
2023-04-23T22:13:42.165Z,87.89
2023-04-23T22:16:20.694Z,86.56
2023-04-23T22:18:55.125Z,85.42
2023-04-23T22:21:24.115Z,86.52
2023-04-23T22:23:53.339Z,86.54
2023-04-23T22:26:22.236Z,86.30
2023-04-23T22:28:50.013Z,85.60
2023-04-23T22:31:18.501Z,84.80
2023-04-23T22:33:47.405Z,84.94
2023-04-23T22:36:15.102Z,85.07
2023-04-23T22:38:44.356Z,84.10
2023-04-23T22:41:12.158Z,84.07
2023-04-23T22:43:40.217Z,83.80
2023-04-23T22:46:07.956Z,82.80
2023-04-23T22:48:37.781Z,83.29
2023-04-23T22:51:05.636Z,83.56
2023-04-23T22:53:33.270Z,84.62
2023-04-23T22:56:02.403Z,85.57
2023-04-23T22:58:30.298Z,85.04
2023-04-23T23:00:58.264Z,84.13
2023-04-23T23:03:26.802Z,84.55
2023-04-23T23:05:54.851Z,85.51
2023-04-23T23:08:22.622Z,85.93
2023-04-23T23:10:50.288Z,85.12
2023-04-23T23:13:19.349Z,85.25
2023-04-23T23:15:46.974Z,85.97
2023-04-23T23:18:14.749Z,86.43
2023-04-23T23:20:44.614Z,87.40
2023-04-23T23:23:12.481Z,88.08
2023-04-23T23:25:40.173Z,88.36
2023-04-23T23:28:07.810Z,89.41
2023-04-23T23:30:36.931Z,90.09
2023-04-23T23:33:04.981Z,90.01
2023-04-23T23:35:32.789Z,91.02
2023-04-23T23:38:00.301Z,91.31
2023-04-23T23:40:27.869Z,91.08
2023-04-23T23:42:55.923Z,90.66
2023-04-23T23:45:23.755Z,90.50
2023-04-23T23:47:53.014Z,90.83
2023-04-23T23:50:20.903Z,90.91
2023-04-23T23:52:48.471Z,90.25
2023-04-23T23:55:16.305Z,89.74
2023-04-23T23:57:44.002Z,89.71
